Time;durP1;ratioP1;P1;durP2;ratioP2;P2;SDS_P1;SDS_P2;PMS_P1;PMS_P2;Temp;Humidity;BMP_temperature;BMP_pressure;BME280_temperature;BME280_humidity;BME280_pressure;Samples;Min_cycle;Max_cycle;Signal;HPM_P1;HPM_P2
2023/11/23 00:01:13;;;;;;;26.48;14.70;;;;;;;;;;5094209;28;20333;-28
2023/11/23 00:03:38;;;;;;;27.63;14.80;;;;;;;;;;5094122;28;20016;-28
2023/11/23 00:06:04;;;;;;;32.13;15.88;;;;;;;;;;5093902;28;20091;-28
2023/11/23 00:08:29;;;;;;;29.52;15.20;;;;;;;;;;5094948;28;20435;-29
2023/11/23 00:10:54;;;;;;;31.43;14.97;;;;;;;;;;5094408;28;20091;-28
2023/11/23 00:13:19;;;;;;;38.63;15.97;;;;;;;;;;5093745;28;20254;-28
2023/11/23 00:15:44;;;;;;;34.60;15.48;;;;;;;;;;5093764;28;20650;-29
2023/11/23 00:18:10;;;;;;;31.25;15.63;;;;;;;;;;5093611;28;20020;-28
2023/11/23 00:20:35;;;;;;;31.93;15.10;;;;;;;;;;5093689;28;20016;-29
2023/11/23 00:23:00;;;;;;;31.80;14.73;;;;;;;;;;5093807;28;20346;-28
2023/11/23 00:25:27;;;;;;;32.50;14.07;;;;;;;;;;5093901;28;20729;-29
2023/11/23 00:27:52;;;;;;;35.33;15.43;;;;;;;;;;5093564;28;20258;-28
2023/11/23 00:30:17;;;;;;;25.92;15.02;;;;;;;;;;5093467;28;20020;-29
2023/11/23 00:32:43;;;;;;;32.40;14.33;;;;;;;;;;5075619;28;20162;-29
2023/11/23 00:35:08;;;;;;;33.63;15.10;;;;;;;;;;5093690;28;20713;-28
2023/11/23 00:37:33;;;;;;;28.27;13.95;;;;;;;;;;5093683;28;20400;-28
2023/11/23 00:39:58;;;;;;;30.77;13.93;;;;;;;;;;5093444;28;20492;-29
2023/11/23 00:42:24;;;;;;;36.58;14.38;;;;;;;;;;5093371;28;20258;-28
2023/11/23 00:44:50;;;;;;;23.67;13.07;;;;;;;;;;5093594;28;20016;-28
2023/11/23 00:47:15;;;;;;;33.00;13.57;;;;;;;;;;5093351;28;20371;-28
2023/11/23 00:49:40;;;;;;;34.27;13.17;;;;;;;;;;5094523;28;20074;-29
2023/11/23 00:52:05;;;;;;;24.23;11.93;;;;;;;;;;5097840;28;20262;-29
2023/11/23 00:54:37;;;;;;;27.02;12.57;;;;;;;;;;5097422;28;20044;-30
2023/11/23 00:57:03;;;;;;;23.60;11.77;;;;;;;;;;5097786;28;20432;-29
2023/11/23 00:59:28;;;;;;;24.02;11.38;;;;;;;;;;5097596;28;20059;-29
2023/11/23 01:01:53;;;;;;;31.93;11.47;;;;;;;;;;5097626;28;20013;-28
2023/11/23 01:04:21;;;;;;;28.25;11.00;;;;;;;;;;5097551;28;20725;-29
2023/11/23 01:06:46;;;;;;;21.80;9.73;;;;;;;;;;5097584;28;20482;-29
2023/11/23 01:09:11;;;;;;;22.43;9.13;;;;;;;;;;5097806;28;20016;-29
2023/11/23 01:11:37;;;;;;;26.00;9.20;;;;;;;;;;5097455;28;20348;-29
2023/11/23 01:14:03;;;;;;;19.17;8.25;;;;;;;;;;5097422;28;20269;-29
2023/11/23 01:16:28;;;;;;;19.73;8.50;;;;;;;;;;5097070;28;20027;-29
2023/11/23 01:18:53;;;;;;;19.27;8.03;;;;;;;;;;5097589;28;20134;-29
2023/11/23 01:21:18;;;;;;;26.87;8.33;;;;;;;;;;5097065;28;20250;-28
2023/11/23 01:23:43;;;;;;;16.88;7.70;;;;;;;;;;5096893;28;20304;-29
2023/11/23 01:26:08;;;;;;;18.08;8.30;;;;;;;;;;5097171;28;20414;-29
2023/11/23 01:28:34;;;;;;;22.85;8.45;;;;;;;;;;5097137;28;20417;-29
2023/11/23 01:30:59;;;;;;;20.33;7.85;;;;;;;;;;5096885;28;20043;-28
2023/11/23 01:33:24;;;;;;;15.80;7.63;;;;;;;;;;5097001;28;20035;-28
2023/11/23 01:35:50;;;;;;;22.63;8.10;;;;;;;;;;5096860;28;20315;-29
2023/11/23 01:38:15;;;;;;;17.80;7.45;;;;;;;;;;5096736;28;20278;-29
2023/11/23 01:40:40;;;;;;;19.43;7.60;;;;;;;;;;5096756;28;20020;-29
2023/11/23 01:43:06;;;;;;;18.90;7.13;;;;;;;;;;5097231;28;20254;-29
2023/11/23 01:45:31;;;;;;;17.27;7.10;;;;;;;;;;5096757;28;20270;-29
2023/11/23 01:47:57;;;;;;;16.27;7.33;;;;;;;;;;5096482;28;20347;-29
2023/11/23 01:50:22;;;;;;;16.92;6.82;;;;;;;;;;5096464;28;20260;-29
2023/11/23 01:52:48;;;;;;;18.02;7.28;;;;;;;;;;5096718;28;20032;-28
2023/11/23 01:55:13;;;;;;;21.58;6.53;;;;;;;;;;5096201;28;20505;-28
2023/11/23 01:57:39;;;;;;;13.25;6.35;;;;;;;;;;5095595;28;20031;-29
2023/11/23 02:00:04;;;;;;;18.17;6.40;;;;;;;;;;5095173;28;20020;-29
2023/11/23 02:02:30;;;;;;;19.25;6.32;;;;;;;;;;5094624;28;20020;-33
2023/11/23 02:04:57;;;;;;;16.48;6.88;;;;;;;;;;5095252;28;20016;-28
2023/11/23 02:07:22;;;;;;;16.60;6.15;;;;;;;;;;5095251;28;20111;-29
2023/11/23 02:09:47;;;;;;;15.30;5.80;;;;;;;;;;5095168;28;20113;-29
2023/11/23 02:12:13;;;;;;;15.03;5.40;;;;;;;;;;5095883;28;20266;-28
2023/11/23 02:14:38;;;;;;;17.40;6.13;;;;;;;;;;5096219;28;20759;-28
2023/11/23 02:17:16;;;;;;;12.07;5.27;;;;;;;;;;5095918;28;20043;-29
2023/11/23 02:19:41;;;;;;;22.38;5.22;;;;;;;;;;5095874;28;20281;-29
2023/11/23 02:22:07;;;;;;;19.98;5.03;;;;;;;;;;5096430;28;20016;-29
2023/11/23 02:24:32;;;;;;;14.65;4.78;;;;;;;;;;5096054;28;20012;-29
2023/11/23 02:26:57;;;;;;;20.77;5.13;;;;;;;;;;5095838;28;20016;-29
2023/11/23 02:29:22;;;;;;;13.03;4.23;;;;;;;;;;5096526;28;20027;-29
2023/11/23 02:31:47;;;;;;;12.43;4.23;;;;;;;;;;5096241;28;20258;-29
2023/11/23 02:34:13;;;;;;;23.03;4.43;;;;;;;;;;5095651;28;20590;-28
2023/11/23 02:36:38;;;;;;;11.80;3.50;;;;;;;;;;5096205;28;20292;-29
2023/11/23 02:39:04;;;;;;;14.33;3.50;;;;;;;;;;5095458;28;20266;-29
2023/11/23 02:41:29;;;;;;;15.10;3.70;;;;;;;;;;5095672;28;20250;-29
2023/11/23 02:43:54;;;;;;;16.60;3.50;;;;;;;;;;5095913;28;20375;-29
2023/11/23 02:46:20;;;;;;;16.20;3.23;;;;;;;;;;5095362;28;20356;-29
2023/11/23 02:48:45;;;;;;;18.27;3.77;;;;;;;;;;5095841;28;20258;-29
2023/11/23 02:51:10;;;;;;;14.50;3.47;;;;;;;;;;5095594;28;20250;-29
2023/11/23 02:53:43;;;;;;;15.32;3.42;;;;;;;;;;5095593;28;20016;-28
2023/11/23 02:56:08;;;;;;;15.80;3.10;;;;;;;;;;5095322;28;20048;-29
2023/11/23 02:58:33;;;;;;;9.25;3.40;;;;;;;;;;5095616;28;20036;-29
2023/11/23 03:00:58;;;;;;;14.07;3.20;;;;;;;;;;5095096;28;20016;-28
2023/11/23 03:03:23;;;;;;;18.60;3.53;;;;;;;;;;5095642;28;20238;-29
2023/11/23 03:05:49;;;;;;;17.65;3.25;;;;;;;;;;5095350;28;20254;-29
2023/11/23 03:08:14;;;;;;;12.60;2.97;;;;;;;;;;5095586;28;20453;-28
2023/11/23 03:10:39;;;;;;;23.85;3.92;;;;;;;;;;5095664;28;20050;-28
2023/11/23 03:13:05;;;;;;;17.93;3.30;;;;;;;;;;5094245;28;20012;-28
2023/11/23 03:15:31;;;;;;;19.23;3.90;;;;;;;;;;5094775;28;20261;-28
2023/11/23 03:17:56;;;;;;;18.33;3.63;;;;;;;;;;5095341;28;20020;-29
2023/11/23 03:20:21;;;;;;;12.85;3.05;;;;;;;;;;5094813;28;20796;-29
2023/11/23 03:22:46;;;;;;;15.93;3.08;;;;;;;;;;5094692;28;20459;-29
2023/11/23 03:25:12;;;;;;;15.30;3.33;;;;;;;;;;5095142;28;20069;-29
2023/11/23 03:27:38;;;;;;;14.27;2.80;;;;;;;;;;5094813;28;20254;-29
2023/11/23 03:30:05;;;;;;;16.63;3.30;;;;;;;;;;5094463;28;20020;-28
2023/11/23 03:32:32;;;;;;;15.45;3.10;;;;;;;;;;5094753;28;20386;-28
2023/11/23 03:34:57;;;;;;;15.30;3.10;;;;;;;;;;5094417;28;20024;-28
2023/11/23 03:37:22;;;;;;;11.50;2.80;;;;;;;;;;5094355;28;20028;-28
2023/11/23 03:39:47;;;;;;;16.53;3.13;;;;;;;;;;5094340;28;20459;-28
2023/11/23 03:42:12;;;;;;;14.50;3.40;;;;;;;;;;5094938;28;20348;-29
2023/11/23 03:44:38;;;;;;;11.83;2.60;;;;;;;;;;5094342;28;20254;-29
2023/11/23 03:47:03;;;;;;;13.10;2.77;;;;;;;;;;5094500;28;20250;-29
2023/11/23 03:49:28;;;;;;;16.85;2.95;;;;;;;;;;5094167;28;20262;-28
2023/11/23 03:51:53;;;;;;;15.60;2.87;;;;;;;;;;5094745;28;20016;-28
2023/11/23 03:54:18;;;;;;;13.60;2.88;;;;;;;;;;5094188;28;20274;-29
2023/11/23 03:56:44;;;;;;;11.23;3.30;;;;;;;;;;5094118;28;20027;-28
2023/11/23 03:59:09;;;;;;;16.52;3.10;;;;;;;;;;5094702;28;20408;-28
2023/11/23 04:01:42;;;;;;;19.60;4.05;;;;;;;;;;5094295;28;20127;-28
2023/11/23 04:04:07;;;;;;;15.13;3.17;;;;;;;;;;5094313;28;20018;-29
2023/11/23 04:06:32;;;;;;;14.70;3.03;;;;;;;;;;5094494;28;20020;-28
2023/11/23 04:08:58;;;;;;;12.93;2.87;;;;;;;;;;5093925;28;20262;-29
2023/11/23 04:11:23;;;;;;;12.13;2.70;;;;;;;;;;5094074;28;20337;-29
2023/11/23 04:13:48;;;;;;;10.32;3.15;;;;;;;;;;5094146;28;20040;-28
2023/11/23 04:16:13;;;;;;;11.02;2.67;;;;;;;;;;5093785;28;20032;-28
2023/11/23 04:18:41;;;;;;;12.33;3.00;;;;;;;;;;5093655;28;20012;-29
2023/11/23 04:21:06;;;;;;;16.13;2.92;;;;;;;;;;5093935;28;20254;-28
2023/11/23 04:23:31;;;;;;;12.80;3.23;;;;;;;;;;5093563;28;20017;-28
2023/11/23 04:25:57;;;;;;;14.17;3.13;;;;;;;;;;5093856;28;20265;-29
2023/11/23 04:28:22;;;;;;;11.30;2.97;;;;;;;;;;5093648;28;20815;-28
2023/11/23 04:30:47;;;;;;;12.70;3.07;;;;;;;;;;5093613;28;20528;-29
2023/11/23 04:33:12;;;;;;;17.58;3.00;;;;;;;;;;5093816;28;20262;-29
2023/11/23 04:35:38;;;;;;;17.97;2.80;;;;;;;;;;5093501;28;20085;-28
2023/11/23 04:38:03;;;;;;;12.38;2.85;;;;;;;;;;5093453;28;20321;-29
2023/11/23 04:40:28;;;;;;;9.45;2.80;;;;;;;;;;5093714;28;20024;-29
2023/11/23 04:42:53;;;;;;;14.87;3.33;;;;;;;;;;5094054;28;20463;-28
2023/11/23 04:45:19;;;;;;;17.13;3.13;;;;;;;;;;5093980;28;20336;-28
2023/11/23 04:47:44;;;;;;;14.02;3.53;;;;;;;;;;5093319;28;20609;-29
2023/11/23 04:50:10;;;;;;;15.37;3.23;;;;;;;;;;5093955;28;20031;-29
2023/11/23 04:52:36;;;;;;;12.07;2.88;;;;;;;;;;5093579;28;20254;-29
2023/11/23 04:55:02;;;;;;;10.70;2.60;;;;;;;;;;5093225;28;20387;-29
2023/11/23 04:57:27;;;;;;;16.23;3.20;;;;;;;;;;5093537;28;20451;-29
2023/11/23 04:59:52;;;;;;;10.43;3.17;;;;;;;;;;5093213;28;20028;-29
2023/11/23 05:02:19;;;;;;;14.63;3.10;;;;;;;;;;5093342;28;20246;-29
2023/11/23 05:04:46;;;;;;;11.40;2.88;;;;;;;;;;5093420;28;20375;-29
2023/11/23 05:07:11;;;;;;;13.15;2.92;;;;;;;;;;5093481;28;20391;-28
2023/11/23 05:09:36;;;;;;;15.07;3.10;;;;;;;;;;5093076;28;20031;-29
2023/11/23 05:12:01;;;;;;;12.30;3.00;;;;;;;;;;5093372;28;20329;-29
2023/11/23 05:14:26;;;;;;;9.30;2.83;;;;;;;;;;5093344;28;20258;-28
2023/11/23 05:16:51;;;;;;;16.10;3.07;;;;;;;;;;5093176;28;20028;-28
2023/11/23 05:19:19;;;;;;;15.83;3.00;;;;;;;;;;5093074;28;20270;-28
2023/11/23 05:21:45;;;;;;;8.55;2.60;;;;;;;;;;5093357;28;20282;-29
2023/11/23 05:24:10;;;;;;;10.38;2.97;;;;;;;;;;5093205;28;20355;-29
2023/11/23 05:26:35;;;;;;;12.63;2.97;;;;;;;;;;5093114;28;20052;-28
2023/11/23 05:29:00;;;;;;;11.97;3.13;;;;;;;;;;5093031;28;20257;-29
2023/11/23 05:31:25;;;;;;;15.05;3.17;;;;;;;;;;5093063;28;20250;-29
2023/11/23 05:33:52;;;;;;;7.77;2.20;;;;;;;;;;5093492;28;20036;-29
2023/11/23 05:36:17;;;;;;;13.55;2.78;;;;;;;;;;5095217;28;20265;-28
2023/11/23 05:38:42;;;;;;;13.93;2.85;;;;;;;;;;5097403;28;20012;-28
2023/11/23 05:41:08;;;;;;;9.30;2.40;;;;;;;;;;5096980;28;20063;-29
2023/11/23 05:43:33;;;;;;;17.23;2.73;;;;;;;;;;5096684;28;20246;-28
2023/11/23 05:45:58;;;;;;;15.53;2.90;;;;;;;;;;5096648;28;20251;-29
2023/11/23 05:48:23;;;;;;;11.57;2.60;;;;;;;;;;5096508;28;20761;-28
2023/11/23 05:50:48;;;;;;;11.20;2.88;;;;;;;;;;5096683;28;20031;-29
2023/11/23 05:53:14;;;;;;;11.37;2.60;;;;;;;;;;5096511;28;20384;-28
2023/11/23 05:55:39;;;;;;;15.50;2.70;;;;;;;;;;5096978;28;20293;-29
2023/11/23 05:58:04;;;;;;;18.08;3.22;;;;;;;;;;5096350;28;20024;-29
2023/11/23 06:00:31;;;;;;;9.90;2.77;;;;;;;;;;5096594;28;20351;-28
2023/11/23 06:02:56;;;;;;;10.85;2.38;;;;;;;;;;5096508;28;20725;-28
2023/11/23 06:05:21;;;;;;;13.67;2.83;;;;;;;;;;5096753;28;20012;-28
2023/11/23 06:07:46;;;;;;;9.57;2.40;;;;;;;;;;5096467;28;20664;-29
2023/11/23 06:10:11;;;;;;;14.00;3.03;;;;;;;;;;5096180;28;20250;-29
2023/11/23 06:12:38;;;;;;;10.00;2.53;;;;;;;;;;5096063;28;20258;-28
2023/11/23 06:15:03;;;;;;;16.60;3.08;;;;;;;;;;5096054;28;20290;-28
2023/11/23 06:17:29;;;;;;;21.92;3.28;;;;;;;;;;5096016;28;20050;-29
2023/11/23 06:19:54;;;;;;;17.08;2.58;;;;;;;;;;5096457;28;20031;-28
2023/11/23 06:22:19;;;;;;;13.27;2.63;;;;;;;;;;5095949;28;20020;-29
2023/11/23 06:24:44;;;;;;;9.97;3.00;;;;;;;;;;5095812;28;20020;-29
2023/11/23 06:27:10;;;;;;;11.90;2.70;;;;;;;;;;5095824;28;20304;-29
2023/11/23 06:29:35;;;;;;;7.90;2.67;;;;;;;;;;5095670;28;20265;-29
2023/11/23 06:32:01;;;;;;;12.23;2.78;;;;;;;;;;5095647;28;20008;-28
2023/11/23 06:34:26;;;;;;;12.43;2.50;;;;;;;;;;5095958;28;20152;-28
2023/11/23 06:36:51;;;;;;;9.02;2.55;;;;;;;;;;5095856;28;20020;-29
2023/11/23 06:39:23;;;;;;;18.60;2.88;;;;;;;;;;5095765;28;20096;-28
2023/11/23 06:41:52;;;;;;;11.77;2.70;;;;;;;;;;5095765;28;20016;-29
2023/11/23 06:44:17;;;;;;;14.88;2.80;;;;;;;;;;5095681;28;20101;-29
2023/11/23 06:46:42;;;;;;;12.73;2.67;;;;;;;;;;5094413;28;20051;-29
2023/11/23 06:49:07;;;;;;;14.57;2.90;;;;;;;;;;5094803;28;20027;-28
2023/11/23 06:51:33;;;;;;;15.20;2.80;;;;;;;;;;5094224;28;20683;-29
2023/11/23 06:53:58;;;;;;;14.27;2.40;;;;;;;;;;5075192;28;20278;-29
2023/11/23 06:56:23;;;;;;;9.87;2.53;;;;;;;;;;5076789;28;20127;-29
2023/11/23 06:58:48;;;;;;;12.93;3.30;;;;;;;;;;5094978;28;20281;-28
2023/11/23 07:01:14;;;;;;;19.98;2.90;;;;;;;;;;5095385;28;20020;-29
2023/11/23 07:03:41;;;;;;;12.88;2.50;;;;;;;;;;5095648;28;20450;-29
2023/11/23 07:06:06;;;;;;;11.45;2.92;;;;;;;;;;5095390;28;20490;-29
2023/11/23 07:08:35;;;;;;;12.43;2.90;;;;;;;;;;5095425;28;20020;-29
2023/11/23 07:11:01;;;;;;;8.15;2.55;;;;;;;;;;5095191;28;20374;-29
2023/11/23 07:13:26;;;;;;;12.15;3.08;;;;;;;;;;5095677;28;20066;-29
2023/11/23 07:15:52;;;;;;;10.90;2.78;;;;;;;;;;5095080;28;20028;-29
2023/11/23 07:18:17;;;;;;;15.45;2.85;;;;;;;;;;5095004;28;20043;-28
2023/11/23 07:20:42;;;;;;;10.95;2.80;;;;;;;;;;5095012;28;20012;-28
2023/11/23 07:23:08;;;;;;;12.57;2.72;;;;;;;;;;5094175;28;20501;-29
2023/11/23 07:25:35;;;;;;;12.50;2.78;;;;;;;;;;5094107;28;20042;-28
2023/11/23 07:28:00;;;;;;;13.13;2.83;;;;;;;;;;5093963;28;20036;-29
2023/11/23 07:30:25;;;;;;;11.07;2.85;;;;;;;;;;5093825;28;20449;-29
2023/11/23 07:32:51;;;;;;;16.50;2.97;;;;;;;;;;5093849;28;20471;-29
2023/11/23 07:35:16;;;;;;;13.27;3.00;;;;;;;;;;5093785;28;20266;-28
2023/11/23 07:37:42;;;;;;;14.07;2.67;;;;;;;;;;5093859;28;20258;-29
2023/11/23 07:40:14;;;;;;;18.65;3.20;;;;;;;;;;5093763;28;20490;-28
2023/11/23 07:42:42;;;;;;;15.93;3.08;;;;;;;;;;5094026;28;20115;-29
2023/11/23 07:45:08;;;;;;;11.63;2.67;;;;;;;;;;5094147;28;20087;-29
2023/11/23 07:47:33;;;;;;;13.55;2.65;;;;;;;;;;5094440;28;20054;-29
2023/11/23 07:50:00;;;;;;;11.40;2.53;;;;;;;;;;5094703;28;20412;-29
2023/11/23 07:52:25;;;;;;;16.35;2.88;;;;;;;;;;5094051;28;20062;-29
2023/11/23 07:54:50;;;;;;;10.73;2.20;;;;;;;;;;5093887;28;20082;-29
2023/11/23 07:57:15;;;;;;;17.40;3.00;;;;;;;;;;5093960;28;20174;-28
2023/11/23 07:59:42;;;;;;;13.83;2.47;;;;;;;;;;5094019;28;20277;-29
2023/11/23 08:02:08;;;;;;;15.63;2.30;;;;;;;;;;5093944;28;20258;-29
2023/11/23 08:04:33;;;;;;;13.43;2.47;;;;;;;;;;5094019;28;20039;-29
2023/11/23 08:06:58;;;;;;;18.83;2.67;;;;;;;;;;5094011;28;20262;-29
2023/11/23 08:09:23;;;;;;;12.50;2.40;;;;;;;;;;5093760;28;20670;-28
2023/11/23 08:11:52;;;;;;;10.17;2.50;;;;;;;;;;5093440;28;20026;-29
2023/11/23 08:14:18;;;;;;;14.05;2.55;;;;;;;;;;5094043;28;20062;-28
2023/11/23 08:16:43;;;;;;;14.88;2.28;;;;;;;;;;5093969;28;20451;-29
2023/11/23 08:19:08;;;;;;;12.83;2.40;;;;;;;;;;5093666;28;20455;-28
2023/11/23 08:21:33;;;;;;;17.30;2.47;;;;;;;;;;5093698;28;20285;-28
2023/11/23 08:23:58;;;;;;;9.07;2.37;;;;;;;;;;5094244;28;20122;-29
2023/11/23 08:26:25;;;;;;;14.70;2.40;;;;;;;;;;5093877;28;20246;-29
2023/11/23 08:28:50;;;;;;;9.07;2.13;;;;;;;;;;5093685;28;20024;-29
2023/11/23 08:31:16;;;;;;;12.48;2.50;;;;;;;;;;5093607;28;20430;-28
2023/11/23 08:33:41;;;;;;;12.80;2.50;;;;;;;;;;5093754;28;20024;-29
2023/11/23 08:36:06;;;;;;;11.17;2.37;;;;;;;;;;5093476;28;20052;-29
2023/11/23 08:38:31;;;;;;;14.63;2.40;;;;;;;;;;5093374;28;20281;-29
2023/11/23 08:40:57;;;;;;;17.00;2.73;;;;;;;;;;5093754;28;20016;-28
2023/11/23 08:43:22;;;;;;;14.63;2.30;;;;;;;;;;5093397;28;20253;-29
2023/11/23 08:45:47;;;;;;;21.70;2.80;;;;;;;;;;5093421;28;20162;-29
2023/11/23 08:48:13;;;;;;;12.40;2.25;;;;;;;;;;5093458;28;20265;-29
2023/11/23 08:50:38;;;;;;;14.30;2.58;;;;;;;;;;5093586;28;20156;-28
2023/11/23 08:53:05;;;;;;;14.30;2.07;;;;;;;;;;5093774;28;20028;-29
2023/11/23 08:55:30;;;;;;;9.35;2.10;;;;;;;;;;5093106;28;20299;-28
2023/11/23 08:57:55;;;;;;;12.68;2.58;;;;;;;;;;5092548;28;20383;-28
2023/11/23 09:00:28;;;;;;;13.13;2.00;;;;;;;;;;5091049;28;20016;-28
2023/11/23 09:02:54;;;;;;;15.80;2.35;;;;;;;;;;5092586;28;20268;-28
2023/11/23 09:05:20;;;;;;;11.45;2.00;;;;;;;;;;5093492;28;20020;-28
2023/11/23 09:07:46;;;;;;;12.70;2.10;;;;;;;;;;5093422;28;20020;-28
2023/11/23 09:10:12;;;;;;;13.48;2.42;;;;;;;;;;5093429;28;20016;-29
2023/11/23 09:12:37;;;;;;;12.20;3.45;;;;;;;;;;5097245;28;20016;-28
2023/11/23 09:15:04;;;;;;;7.20;1.95;;;;;;;;;;5097424;28;20031;-28
2023/11/23 09:17:30;;;;;;;14.90;2.42;;;;;;;;;;5095961;28;20355;-28
2023/11/23 09:19:55;;;;;;;15.30;3.13;;;;;;;;;;5096823;28;20031;-28
2023/11/23 09:22:21;;;;;;;12.50;2.35;;;;;;;;;;5078819;28;20504;-28
2023/11/23 09:24:47;;;;;;;12.43;2.50;;;;;;;;;;5097228;28;20024;-29
2023/11/23 09:27:14;;;;;;;13.80;2.60;;;;;;;;;;5097157;28;20106;-28
2023/11/23 09:29:39;;;;;;;10.90;2.47;;;;;;;;;;5096732;28;20262;-29
2023/11/23 09:32:05;;;;;;;11.90;2.40;;;;;;;;;;5097107;28;20023;-29
2023/11/23 09:34:30;;;;;;;21.80;2.50;;;;;;;;;;5097094;28;20023;-28
2023/11/23 09:36:55;;;;;;;13.23;2.40;;;;;;;;;;5096829;28;20378;-28
2023/11/23 09:39:21;;;;;;;15.93;2.50;;;;;;;;;;5097137;28;20078;-29
2023/11/23 09:41:46;;;;;;;8.90;2.15;;;;;;;;;;5095387;28;20020;-28
2023/11/23 09:44:11;;;;;;;15.07;2.63;;;;;;;;;;5094426;28;20016;-29
2023/11/23 09:46:38;;;;;;;15.02;2.42;;;;;;;;;;5094828;28;20099;-29
2023/11/23 09:49:05;;;;;;;10.10;2.22;;;;;;;;;;5094528;28;20020;-29
2023/11/23 09:51:30;;;;;;;12.30;2.25;;;;;;;;;;5094300;28;20035;-29
2023/11/23 09:53:58;;;;;;;11.20;2.63;;;;;;;;;;5094684;28;20020;-30
2023/11/23 09:56:24;;;;;;;9.25;2.20;;;;;;;;;;5096758;28;20297;-29
2023/11/23 09:58:50;;;;;;;12.07;2.60;;;;;;;;;;5096384;28;20020;-29
2023/11/23 10:01:15;;;;;;;11.95;2.30;;;;;;;;;;5096408;28;20020;-29
2023/11/23 10:03:43;;;;;;;9.57;2.30;;;;;;;;;;5096882;28;20027;-29
2023/11/23 10:06:10;;;;;;;10.88;2.40;;;;;;;;;;5096172;28;20055;-29
2023/11/23 10:08:37;;;;;;;8.80;2.40;;;;;;;;;;5096300;28;20017;-29
2023/11/23 10:11:02;;;;;;;12.70;2.67;;;;;;;;;;5095063;28;20421;-29
2023/11/23 10:13:28;;;;;;;8.90;2.40;;;;;;;;;;5096080;28;20012;-29
2023/11/23 10:15:53;;;;;;;10.53;2.20;;;;;;;;;;5096474;28;20020;-29
2023/11/23 10:18:19;;;;;;;10.50;2.40;;;;;;;;;;5096828;28;20379;-29
2023/11/23 10:20:46;;;;;;;10.25;2.22;;;;;;;;;;5096240;28;20387;-29
2023/11/23 10:23:12;;;;;;;11.90;2.50;;;;;;;;;;5095862;28;20017;-29
2023/11/23 10:25:40;;;;;;;11.57;2.50;;;;;;;;;;5095874;28;20020;-29
2023/11/23 10:28:06;;;;;;;11.20;2.38;;;;;;;;;;5077737;28;20016;-29
2023/11/23 10:30:31;;;;;;;16.10;2.67;;;;;;;;;;5096064;28;20474;-29
2023/11/23 10:32:57;;;;;;;10.82;2.38;;;;;;;;;;5095795;28;20024;-29
2023/11/23 10:35:23;;;;;;;12.45;2.30;;;;;;;;;;5095914;28;20012;-28
2023/11/23 10:37:52;;;;;;;14.85;2.50;;;;;;;;;;5095199;28;20031;-29
2023/11/23 10:40:18;;;;;;;8.48;2.20;;;;;;;;;;5095019;28;20092;-29
2023/11/23 10:42:44;;;;;;;11.38;2.30;;;;;;;;;;5095748;28;20016;-29
2023/11/23 10:45:12;;;;;;;10.50;2.10;;;;;;;;;;5095491;28;20538;-29
2023/11/23 10:47:38;;;;;;;10.98;2.20;;;;;;;;;;5094590;28;20024;-28
2023/11/23 10:50:05;;;;;;;13.73;2.30;;;;;;;;;;5094922;28;20032;-29
2023/11/23 10:52:34;;;;;;;10.55;2.08;;;;;;;;;;5095519;28;20109;-29
2023/11/23 10:54:59;;;;;;;10.43;2.03;;;;;;;;;;5076067;28;20083;-29
2023/11/23 10:57:25;;;;;;;7.63;2.00;;;;;;;;;;5095603;28;20036;-29
2023/11/23 10:59:51;;;;;;;17.65;2.58;;;;;;;;;;5095435;28;20673;-28
2023/11/23 11:02:17;;;;;;;15.77;2.55;;;;;;;;;;5095645;28;20066;-28
2023/11/23 11:04:42;;;;;;;12.60;1.95;;;;;;;;;;5095097;28;20024;-28
2023/11/23 11:07:07;;;;;;;11.00;2.10;;;;;;;;;;5095105;28;20504;-29
2023/11/23 11:09:33;;;;;;;7.78;1.98;;;;;;;;;;5095587;28;20016;-29
2023/11/23 11:12:01;;;;;;;10.98;1.83;;;;;;;;;;5095246;28;20467;-29
2023/11/23 11:14:36;;;;;;;8.48;2.22;;;;;;;;;;5094871;28;20020;-29
2023/11/23 11:17:02;;;;;;;7.43;1.67;;;;;;;;;;5095056;28;20471;-29
2023/11/23 11:19:28;;;;;;;9.20;1.88;;;;;;;;;;5076514;28;20483;-28
2023/11/23 11:21:58;;;;;;;7.93;1.80;;;;;;;;;;5094731;28;20095;-28
2023/11/23 11:24:26;;;;;;;13.07;2.33;;;;;;;;;;5095323;28;20027;-28
2023/11/23 11:26:58;;;;;;;11.20;2.03;;;;;;;;;;5094930;28;20573;-28
2023/11/23 11:29:23;;;;;;;11.32;1.83;;;;;;;;;;5094578;28;20032;-29
2023/11/23 11:31:49;;;;;;;7.30;1.83;;;;;;;;;;5094571;28;20027;-29
2023/11/23 11:34:19;;;;;;;12.65;2.55;;;;;;;;;;5093676;28;20019;-29
2023/11/23 11:36:46;;;;;;;9.63;1.70;;;;;;;;;;5093891;28;20031;-29
2023/11/23 11:39:11;;;;;;;8.48;1.80;;;;;;;;;;5094597;28;20523;-29
2023/11/23 11:41:37;;;;;;;7.95;2.10;;;;;;;;;;5094696;28;20040;-29
2023/11/23 11:44:08;;;;;;;10.80;1.90;;;;;;;;;;5094609;28;20450;-29
2023/11/23 11:46:33;;;;;;;5.00;1.33;;;;;;;;;;5094554;28;20504;-29
2023/11/23 11:48:58;;;;;;;10.65;2.05;;;;;;;;;;5094292;28;20102;-29
2023/11/23 11:51:27;;;;;;;14.93;2.30;;;;;;;;;;5094311;28;20103;-29
2023/11/23 11:53:55;;;;;;;10.68;2.40;;;;;;;;;;5094162;28;20262;-29
2023/11/23 11:56:23;;;;;;;10.13;1.90;;;;;;;;;;5093507;28;20040;-29
2023/11/23 11:58:49;;;;;;;8.93;2.10;;;;;;;;;;5092918;28;20023;-29
2023/11/23 12:01:15;;;;;;;12.15;2.25;;;;;;;;;;5093133;28;20463;-29
2023/11/23 12:03:40;;;;;;;6.18;1.60;;;;;;;;;;5094192;28;20367;-30
2023/11/23 12:06:05;;;;;;;9.63;2.10;;;;;;;;;;5094075;28;20536;-29
2023/11/23 12:08:37;;;;;;;9.85;1.98;;;;;;;;;;5093820;28;20265;-30
2023/11/23 12:11:03;;;;;;;12.13;2.35;;;;;;;;;;5094374;28;20024;-29
2023/11/23 12:13:32;;;;;;;11.45;2.20;;;;;;;;;;5093818;28;20023;-29
2023/11/23 12:15:57;;;;;;;11.68;2.03;;;;;;;;;;5094021;28;20428;-29
2023/11/23 12:18:29;;;;;;;11.17;2.17;;;;;;;;;;5093719;28;20052;-29
2023/11/23 12:20:55;;;;;;;8.63;1.87;;;;;;;;;;5094248;28;20352;-29
2023/11/23 12:23:20;;;;;;;10.52;2.03;;;;;;;;;;5093981;28;20756;-29
2023/11/23 12:25:48;;;;;;;12.00;2.23;;;;;;;;;;5094323;28;20023;-29
2023/11/23 12:28:13;;;;;;;10.00;1.95;;;;;;;;;;5075512;28;20269;-29
2023/11/23 12:30:38;;;;;;;13.88;2.10;;;;;;;;;;5093439;28;20375;-29
2023/11/23 12:33:05;;;;;;;16.07;2.20;;;;;;;;;;5093597;28;20055;-29
2023/11/23 12:35:30;;;;;;;11.60;2.13;;;;;;;;;;5093831;28;20012;-29
2023/11/23 12:37:55;;;;;;;8.83;2.20;;;;;;;;;;5094060;28;20016;-29
2023/11/23 12:40:21;;;;;;;12.17;2.20;;;;;;;;;;5092899;28;20032;-29
2023/11/23 12:42:47;;;;;;;13.95;2.08;;;;;;;;;;5073834;28;20274;-29
2023/11/23 12:45:12;;;;;;;8.32;2.00;;;;;;;;;;5092547;28;20016;-29
2023/11/23 12:47:37;;;;;;;15.03;2.23;;;;;;;;;;5093323;28;20012;-29
2023/11/23 12:50:04;;;;;;;14.30;2.60;;;;;;;;;;5092201;28;20269;-29
2023/11/23 12:52:32;;;;;;;13.10;2.30;;;;;;;;;;5093502;28;20031;-29
2023/11/23 12:54:59;;;;;;;12.98;2.35;;;;;;;;;;5093137;28;20109;-29
2023/11/23 12:57:26;;;;;;;7.40;2.45;;;;;;;;;;5093478;28;20039;-29
2023/11/23 12:59:52;;;;;;;17.15;2.28;;;;;;;;;;5093361;28;20046;-29
2023/11/23 13:02:17;;;;;;;13.10;2.17;;;;;;;;;;5093292;28;20091;-29
2023/11/23 13:04:42;;;;;;;11.98;2.08;;;;;;;;;;5093182;28;20016;-29
2023/11/23 13:07:07;;;;;;;11.83;2.63;;;;;;;;;;5092526;28;20008;-29
2023/11/23 13:09:33;;;;;;;9.23;2.40;;;;;;;;;;5093199;28;20023;-29
2023/11/23 13:11:58;;;;;;;10.27;2.28;;;;;;;;;;5093339;28;20246;-29
2023/11/23 13:14:23;;;;;;;7.75;2.20;;;;;;;;;;5093130;28;20043;-29
2023/11/23 13:16:49;;;;;;;13.07;2.30;;;;;;;;;;5093587;28;20024;-29
2023/11/23 13:19:14;;;;;;;15.13;2.83;;;;;;;;;;5093323;28;20278;-29
2023/11/23 13:21:41;;;;;;;13.93;2.97;;;;;;;;;;5093150;28;20016;-29
2023/11/23 13:24:06;;;;;;;11.93;2.28;;;;;;;;;;5094084;28;20262;-29
2023/11/23 13:26:32;;;;;;;14.07;2.80;;;;;;;;;;5093285;28;20367;-29
2023/11/23 13:28:58;;;;;;;14.07;3.08;;;;;;;;;;5093030;28;20028;-29
2023/11/23 13:31:23;;;;;;;16.93;3.43;;;;;;;;;;5092993;28;20020;-29
2023/11/23 13:33:49;;;;;;;13.38;2.80;;;;;;;;;;5075182;28;20257;-29
2023/11/23 13:36:14;;;;;;;17.88;2.75;;;;;;;;;;5093315;28;20066;-30
2023/11/23 13:38:40;;;;;;;13.85;2.78;;;;;;;;;;5092844;28;20020;-29
2023/11/23 13:41:07;;;;;;;15.73;3.00;;;;;;;;;;5093368;28;20016;-29
2023/11/23 13:43:32;;;;;;;12.73;2.75;;;;;;;;;;5093208;28;20051;-29
2023/11/23 13:45:58;;;;;;;17.00;3.23;;;;;;;;;;5092788;28;20181;-29
2023/11/23 13:48:23;;;;;;;20.03;2.90;;;;;;;;;;5093419;28;20254;-29
2023/11/23 13:50:50;;;;;;;9.52;2.45;;;;;;;;;;5093416;28;20277;-29
2023/11/23 13:53:15;;;;;;;12.40;2.53;;;;;;;;;;5074656;28;20077;-29
2023/11/23 13:55:40;;;;;;;18.17;2.87;;;;;;;;;;5092583;28;20562;-29
2023/11/23 13:58:08;;;;;;;15.70;2.60;;;;;;;;;;5096156;28;20270;-29
2023/11/23 14:00:33;;;;;;;19.42;2.95;;;;;;;;;;5096694;28;20181;-29
2023/11/23 14:02:58;;;;;;;24.43;3.40;;;;;;;;;;5095131;28;20474;-29
2023/11/23 14:05:24;;;;;;;15.73;2.90;;;;;;;;;;5096089;28;20254;-29
2023/11/23 14:07:53;;;;;;;15.63;3.35;;;;;;;;;;5096301;28;20012;-29
2023/11/23 14:10:18;;;;;;;19.88;2.63;;;;;;;;;;5096243;28;20099;-29
2023/11/23 14:12:44;;;;;;;13.20;2.67;;;;;;;;;;5096383;28;20047;-30
2023/11/23 14:15:10;;;;;;;9.80;2.47;;;;;;;;;;5096010;28;20078;-29
2023/11/23 14:17:35;;;;;;;15.57;2.75;;;;;;;;;;5096395;28;20020;-29
2023/11/23 14:20:00;;;;;;;16.13;2.57;;;;;;;;;;5095960;28;20020;-29
2023/11/23 14:22:26;;;;;;;14.85;2.55;;;;;;;;;;5096295;28;20605;-29